Davisville, Texas
Current Conditions -  °F | °C
As of 4:15 PM on Monday 26 Jan 2015 (Local Time) from KDKR Reporting Station
Clear Clear  
Wind Chill: 70°   Ceiling: Unl
Heat Index: 70°   Visibility: 10mi
Dew Point: 39°   Wind: 8mph
Humidity: 33%   Direction: 240°WSW
Pressure: 30.14"   Gusts: NA
Location:  31.2807°N, 95.8748°W
Report Text: KDKR 262215Z AUTO 24007KT 10SM CLR 21/04 A3014 RMK AO2
Loading
Personal Weather Stations






























Interactive Weather Map New forecast layout! Learn more

10-Day Weather Forecast

Advertisements
Track Severe Weather on mobile